sensor_id;sensor_type;location;lat;lon;timestamp;P1;durP1;ratioP1;P2;durP2;ratioP2
6376;SDS011;3221;48.858;10.128;2023-03-12T00:00:03;6.73;;;2.90;;
6376;SDS011;3221;48.858;10.128;2023-03-12T00:02:33;5.70;;;3.03;;
6376;SDS011;3221;48.858;10.128;2023-03-12T00:05:00;8.67;;;3.47;;
6376;SDS011;3221;48.858;10.128;2023-03-12T00:07:27;7.70;;;3.73;;
6376;SDS011;3221;48.858;10.128;2023-03-12T00:09:54;9.17;;;5.63;;
6376;SDS011;3221;48.858;10.128;2023-03-12T00:12:21;7.37;;;3.90;;
6376;SDS011;3221;48.858;10.128;2023-03-12T00:14:48;6.53;;;3.03;;
6376;SDS011;3221;48.858;10.128;2023-03-12T00:17:15;5.30;;;2.87;;
6376;SDS011;3221;48.858;10.128;2023-03-12T00:19:41;6.20;;;3.27;;
6376;SDS011;3221;48.858;10.128;2023-03-12T00:22:08;4.57;;;2.90;;
6376;SDS011;3221;48.858;10.128;2023-03-12T00:24:35;6.07;;;3.10;;
6376;SDS011;3221;48.858;10.128;2023-03-12T00:27:02;6.33;;;3.10;;
6376;SDS011;3221;48.858;10.128;2023-03-12T00:29:28;4.43;;;3.13;;
6376;SDS011;3221;48.858;10.128;2023-03-12T00:31:55;4.33;;;2.60;;
6376;SDS011;3221;48.858;10.128;2023-03-12T00:34:22;3.53;;;2.40;;
6376;SDS011;3221;48.858;10.128;2023-03-12T00:36:49;4.37;;;2.70;;
6376;SDS011;3221;48.858;10.128;2023-03-12T00:39:15;5.10;;;2.93;;
6376;SDS011;3221;48.858;10.128;2023-03-12T00:41:42;5.23;;;2.87;;
6376;SDS011;3221;48.858;10.128;2023-03-12T00:44:09;5.50;;;2.47;;
6376;SDS011;3221;48.858;10.128;2023-03-12T00:46:36;6.77;;;2.90;;
6376;SDS011;3221;48.858;10.128;2023-03-12T00:49:03;3.50;;;2.40;;
6376;SDS011;3221;48.858;10.128;2023-03-12T00:51:29;5.43;;;2.80;;
6376;SDS011;3221;48.858;10.128;2023-03-12T00:53:56;4.37;;;2.67;;
6376;SDS011;3221;48.858;10.128;2023-03-12T00:56:23;4.53;;;2.43;;
6376;SDS011;3221;48.858;10.128;2023-03-12T00:58:50;3.70;;;2.70;;
6376;SDS011;3221;48.858;10.128;2023-03-12T01:01:16;7.43;;;3.13;;
6376;SDS011;3221;48.858;10.128;2023-03-12T01:03:45;5.10;;;2.60;;
6376;SDS011;3221;48.858;10.128;2023-03-12T01:06:12;5.07;;;2.70;;
6376;SDS011;3221;48.858;10.128;2023-03-12T01:08:39;6.73;;;2.43;;
6376;SDS011;3221;48.858;10.128;2023-03-12T01:11:06;5.33;;;2.87;;
6376;SDS011;3221;48.858;10.128;2023-03-12T01:13:33;4.10;;;2.50;;
6376;SDS011;3221;48.858;10.128;2023-03-12T01:15:59;4.07;;;2.57;;
6376;SDS011;3221;48.858;10.128;2023-03-12T01:18:26;5.83;;;2.77;;
6376;SDS011;3221;48.858;10.128;2023-03-12T01:20:53;6.67;;;2.80;;
6376;SDS011;3221;48.858;10.128;2023-03-12T01:23:20;6.53;;;3.23;;
6376;SDS011;3221;48.858;10.128;2023-03-12T01:25:47;4.30;;;2.50;;
6376;SDS011;3221;48.858;10.128;2023-03-12T01:28:14;6.67;;;3.00;;
6376;SDS011;3221;48.858;10.128;2023-03-12T01:30:41;5.27;;;2.80;;
6376;SDS011;3221;48.858;10.128;2023-03-12T01:33:08;4.33;;;2.53;;
6376;SDS011;3221;48.858;10.128;2023-03-12T01:35:35;6.07;;;3.00;;
6376;SDS011;3221;48.858;10.128;2023-03-12T01:38:05;3.47;;;2.80;;
6376;SDS011;3221;48.858;10.128;2023-03-12T01:40:34;6.20;;;2.63;;
6376;SDS011;3221;48.858;10.128;2023-03-12T01:48:47;4.77;;;2.50;;
6376;SDS011;3221;48.858;10.128;2023-03-12T01:54:04;5.53;;;2.90;;
6376;SDS011;3221;48.858;10.128;2023-03-12T01:56:36;6.07;;;2.70;;
6376;SDS011;3221;48.858;10.128;2023-03-12T01:59:09;5.87;;;3.17;;
6376;SDS011;3221;48.858;10.128;2023-03-12T02:01:42;6.50;;;2.60;;
6376;SDS011;3221;48.858;10.128;2023-03-12T02:04:10;5.13;;;3.80;;
6376;SDS011;3221;48.858;10.128;2023-03-12T02:06:42;4.93;;;3.20;;
6376;SDS011;3221;48.858;10.128;2023-03-12T02:09:14;7.20;;;3.67;;
6376;SDS011;3221;48.858;10.128;2023-03-12T02:11:46;5.07;;;3.40;;
6376;SDS011;3221;48.858;10.128;2023-03-12T02:14:13;5.70;;;3.10;;
6376;SDS011;3221;48.858;10.128;2023-03-12T02:16:40;8.87;;;4.53;;
6376;SDS011;3221;48.858;10.128;2023-03-12T02:19:10;7.17;;;3.80;;
6376;SDS011;3221;48.858;10.128;2023-03-12T02:21:57;4.60;;;3.50;;
6376;SDS011;3221;48.858;10.128;2023-03-12T02:24:46;4.97;;;3.30;;
6376;SDS011;3221;48.858;10.128;2023-03-12T02:27:14;6.77;;;3.50;;
6376;SDS011;3221;48.858;10.128;2023-03-12T02:29:42;5.87;;;3.00;;
6376;SDS011;3221;48.858;10.128;2023-03-12T02:32:19;4.97;;;3.17;;
6376;SDS011;3221;48.858;10.128;2023-03-12T02:34:49;5.23;;;3.03;;
6376;SDS011;3221;48.858;10.128;2023-03-12T02:37:17;5.87;;;3.20;;
6376;SDS011;3221;48.858;10.128;2023-03-12T02:39:45;3.87;;;2.80;;
6376;SDS011;3221;48.858;10.128;2023-03-12T02:42:18;3.27;;;2.70;;
6376;SDS011;3221;48.858;10.128;2023-03-12T02:44:46;5.17;;;2.50;;
6376;SDS011;3221;48.858;10.128;2023-03-12T02:47:13;3.83;;;2.50;;
6376;SDS011;3221;48.858;10.128;2023-03-12T02:49:40;5.33;;;2.77;;
6376;SDS011;3221;48.858;10.128;2023-03-12T02:52:07;5.70;;;3.17;;
6376;SDS011;3221;48.858;10.128;2023-03-12T02:54:36;4.47;;;2.63;;
6376;SDS011;3221;48.858;10.128;2023-03-12T02:57:03;4.53;;;2.73;;
6376;SDS011;3221;48.858;10.128;2023-03-12T02:59:31;3.20;;;2.70;;
6376;SDS011;3221;48.858;10.128;2023-03-12T03:01:59;3.90;;;2.50;;
6376;SDS011;3221;48.858;10.128;2023-03-12T03:04:27;3.50;;;2.60;;
6376;SDS011;3221;48.858;10.128;2023-03-12T03:06:56;4.27;;;3.00;;
6376;SDS011;3221;48.858;10.128;2023-03-12T03:09:23;7.57;;;2.90;;
6376;SDS011;3221;48.858;10.128;2023-03-12T03:11:49;4.67;;;2.90;;
6376;SDS011;3221;48.858;10.128;2023-03-12T03:14:16;5.30;;;2.80;;
6376;SDS011;3221;48.858;10.128;2023-03-12T03:16:47;5.00;;;2.90;;
6376;SDS011;3221;48.858;10.128;2023-03-12T03:19:14;4.13;;;2.90;;
6376;SDS011;3221;48.858;10.128;2023-03-12T03:21:40;4.33;;;2.70;;
6376;SDS011;3221;48.858;10.128;2023-03-12T03:24:09;4.03;;;2.70;;
6376;SDS011;3221;48.858;10.128;2023-03-12T03:26:35;2.93;;;2.50;;
6376;SDS011;3221;48.858;10.128;2023-03-12T03:29:02;4.43;;;2.90;;
6376;SDS011;3221;48.858;10.128;2023-03-12T03:31:30;2.97;;;2.63;;
6376;SDS011;3221;48.858;10.128;2023-03-12T03:33:57;5.60;;;2.80;;
6376;SDS011;3221;48.858;10.128;2023-03-12T03:36:24;6.97;;;3.50;;
6376;SDS011;3221;48.858;10.128;2023-03-12T03:38:58;3.83;;;2.80;;
6376;SDS011;3221;48.858;10.128;2023-03-12T03:41:25;4.70;;;3.00;;
6376;SDS011;3221;48.858;10.128;2023-03-12T03:43:55;3.73;;;2.67;;
6376;SDS011;3221;48.858;10.128;2023-03-12T03:46:23;3.90;;;2.77;;
6376;SDS011;3221;48.858;10.128;2023-03-12T03:48:56;5.03;;;2.83;;
6376;SDS011;3221;48.858;10.128;2023-03-12T03:51:23;3.80;;;2.57;;
6376;SDS011;3221;48.858;10.128;2023-03-12T03:53:54;4.30;;;2.70;;
6376;SDS011;3221;48.858;10.128;2023-03-12T03:56:22;4.53;;;2.87;;
6376;SDS011;3221;48.858;10.128;2023-03-12T03:58:49;3.77;;;2.60;;
6376;SDS011;3221;48.858;10.128;2023-03-12T04:01:17;4.50;;;2.77;;
6376;SDS011;3221;48.858;10.128;2023-03-12T04:03:46;3.87;;;3.00;;
6376;SDS011;3221;48.858;10.128;2023-03-12T04:06:12;2.93;;;2.63;;
6376;SDS011;3221;48.858;10.128;2023-03-12T04:08:40;4.03;;;2.70;;
6376;SDS011;3221;48.858;10.128;2023-03-12T04:11:12;4.83;;;2.70;;
6376;SDS011;3221;48.858;10.128;2023-03-12T04:13:41;6.67;;;3.60;;
6376;SDS011;3221;48.858;10.128;2023-03-12T04:16:09;4.40;;;2.80;;
6376;SDS011;3221;48.858;10.128;2023-03-12T04:18:36;5.67;;;2.60;;
6376;SDS011;3221;48.858;10.128;2023-03-12T04:21:05;3.87;;;2.50;;
6376;SDS011;3221;48.858;10.128;2023-03-12T04:23:34;4.40;;;3.00;;
6376;SDS011;3221;48.858;10.128;2023-03-12T04:26:01;4.90;;;2.80;;
6376;SDS011;3221;48.858;10.128;2023-03-12T04:28:28;3.53;;;2.67;;
6376;SDS011;3221;48.858;10.128;2023-03-12T04:30:56;3.63;;;2.80;;
6376;SDS011;3221;48.858;10.128;2023-03-12T04:33:27;3.37;;;2.60;;
6376;SDS011;3221;48.858;10.128;2023-03-12T04:35:59;5.97;;;2.33;;
6376;SDS011;3221;48.858;10.128;2023-03-12T04:38:26;3.67;;;2.40;;
6376;SDS011;3221;48.858;10.128;2023-03-12T04:40:58;4.03;;;3.03;;
6376;SDS011;3221;48.858;10.128;2023-03-12T04:43:29;4.77;;;2.80;;
6376;SDS011;3221;48.858;10.128;2023-03-12T04:45:57;3.87;;;2.90;;
6376;SDS011;3221;48.858;10.128;2023-03-12T04:48:25;7.50;;;3.03;;
6376;SDS011;3221;48.858;10.128;2023-03-12T04:50:52;4.97;;;2.70;;
6376;SDS011;3221;48.858;10.128;2023-03-12T04:53:21;3.90;;;2.80;;
6376;SDS011;3221;48.858;10.128;2023-03-12T04:55:50;4.17;;;2.97;;
6376;SDS011;3221;48.858;10.128;2023-03-12T04:58:17;4.13;;;3.20;;
6376;SDS011;3221;48.858;10.128;2023-03-12T05:00:45;5.60;;;3.47;;
6376;SDS011;3221;48.858;10.128;2023-03-12T05:03:13;4.97;;;3.13;;
6376;SDS011;3221;48.858;10.128;2023-03-12T05:05:43;7.20;;;4.47;;
6376;SDS011;3221;48.858;10.128;2023-03-12T05:08:10;18.00;;;9.33;;
6376;SDS011;3221;48.858;10.128;2023-03-12T05:10:37;18.47;;;8.97;;
6376;SDS011;3221;48.858;10.128;2023-03-12T05:13:11;25.10;;;12.33;;
6376;SDS011;3221;48.858;10.128;2023-03-12T05:15:47;16.93;;;9.07;;
6376;SDS011;3221;48.858;10.128;2023-03-12T05:18:17;19.40;;;10.63;;
6376;SDS011;3221;48.858;10.128;2023-03-12T05:20:46;19.27;;;9.70;;
6376;SDS011;3221;48.858;10.128;2023-03-12T05:23:13;9.43;;;5.23;;
6376;SDS011;3221;48.858;10.128;2023-03-12T05:25:40;8.67;;;5.20;;
6376;SDS011;3221;48.858;10.128;2023-03-12T05:28:07;9.50;;;5.77;;
6376;SDS011;3221;48.858;10.128;2023-03-12T05:30:37;7.47;;;4.40;;
6376;SDS011;3221;48.858;10.128;2023-03-12T05:33:04;4.97;;;3.97;;
6376;SDS011;3221;48.858;10.128;2023-03-12T05:35:31;6.57;;;4.30;;
6376;SDS011;3221;48.858;10.128;2023-03-12T05:37:58;9.40;;;4.70;;
6376;SDS011;3221;48.858;10.128;2023-03-12T05:40:25;7.80;;;4.37;;
6376;SDS011;3221;48.858;10.128;2023-03-12T05:42:52;5.93;;;3.80;;
6376;SDS011;3221;48.858;10.128;2023-03-12T05:45:22;5.83;;;4.07;;
6376;SDS011;3221;48.858;10.128;2023-03-12T05:47:51;6.57;;;4.80;;
6376;SDS011;3221;48.858;10.128;2023-03-12T05:50:18;6.13;;;4.40;;
6376;SDS011;3221;48.858;10.128;2023-03-12T05:52:45;5.37;;;4.33;;
6376;SDS011;3221;48.858;10.128;2023-03-12T05:55:12;6.00;;;4.50;;
6376;SDS011;3221;48.858;10.128;2023-03-12T05:57:40;6.83;;;4.30;;
6376;SDS011;3221;48.858;10.128;2023-03-12T06:00:07;12.13;;;8.10;;
6376;SDS011;3221;48.858;10.128;2023-03-12T06:02:49;10.87;;;6.53;;
6376;SDS011;3221;48.858;10.128;2023-03-12T06:05:16;11.37;;;6.63;;
6376;SDS011;3221;48.858;10.128;2023-03-12T06:07:43;18.87;;;10.43;;
6376;SDS011;3221;48.858;10.128;2023-03-12T06:10:10;17.17;;;9.27;;
6376;SDS011;3221;48.858;10.128;2023-03-12T06:12:37;11.10;;;6.93;;
6376;SDS011;3221;48.858;10.128;2023-03-12T06:15:05;10.90;;;6.10;;
6376;SDS011;3221;48.858;10.128;2023-03-12T06:17:32;8.50;;;5.10;;
6376;SDS011;3221;48.858;10.128;2023-03-12T06:19:59;8.57;;;5.27;;
6376;SDS011;3221;48.858;10.128;2023-03-12T06:22:26;6.07;;;4.70;;
6376;SDS011;3221;48.858;10.128;2023-03-12T06:24:54;7.27;;;5.37;;
6376;SDS011;3221;48.858;10.128;2023-03-12T06:27:21;6.83;;;5.00;;
6376;SDS011;3221;48.858;10.128;2023-03-12T06:29:47;8.90;;;5.50;;
6376;SDS011;3221;48.858;10.128;2023-03-12T06:32:14;8.57;;;5.73;;
6376;SDS011;3221;48.858;10.128;2023-03-12T06:34:41;8.03;;;4.80;;
6376;SDS011;3221;48.858;10.128;2023-03-12T06:37:08;8.50;;;5.23;;
6376;SDS011;3221;48.858;10.128;2023-03-12T06:39:37;8.20;;;5.13;;
6376;SDS011;3221;48.858;10.128;2023-03-12T06:42:04;7.43;;;4.97;;
6376;SDS011;3221;48.858;10.128;2023-03-12T06:44:31;6.20;;;4.60;;
6376;SDS011;3221;48.858;10.128;2023-03-12T06:46:58;8.13;;;4.33;;
6376;SDS011;3221;48.858;10.128;2023-03-12T06:49:25;6.63;;;4.40;;
6376;SDS011;3221;48.858;10.128;2023-03-12T06:51:52;9.47;;;5.03;;
6376;SDS011;3221;48.858;10.128;2023-03-12T06:54:26;7.77;;;6.00;;
6376;SDS011;3221;48.858;10.128;2023-03-12T06:56:52;9.23;;;5.00;;
6376;SDS011;3221;48.858;10.128;2023-03-12T06:59:19;7.10;;;4.67;;
6376;SDS011;3221;48.858;10.128;2023-03-12T07:01:47;11.67;;;6.33;;
6376;SDS011;3221;48.858;10.128;2023-03-12T07:04:14;39.43;;;24.93;;
6376;SDS011;3221;48.858;10.128;2023-03-12T07:06:41;18.10;;;11.43;;
6376;SDS011;3221;48.858;10.128;2023-03-12T07:09:07;64.70;;;38.37;;
6376;SDS011;3221;48.858;10.128;2023-03-12T07:11:34;24.03;;;16.27;;
6376;SDS011;3221;48.858;10.128;2023-03-12T07:14:01;18.57;;;13.07;;
6376;SDS011;3221;48.858;10.128;2023-03-12T07:16:28;19.97;;;14.70;;
6376;SDS011;3221;48.858;10.128;2023-03-12T07:18:58;23.73;;;17.00;;
6376;SDS011;3221;48.858;10.128;2023-03-12T07:21:25;19.33;;;11.83;;
6376;SDS011;3221;48.858;10.128;2023-03-12T07:23:52;11.63;;;8.07;;
6376;SDS011;3221;48.858;10.128;2023-03-12T07:26:19;7.07;;;5.23;;
6376;SDS011;3221;48.858;10.128;2023-03-12T07:28:46;6.93;;;4.97;;
6376;SDS011;3221;48.858;10.128;2023-03-12T07:31:12;7.37;;;5.20;;
6376;SDS011;3221;48.858;10.128;2023-03-12T07:33:40;7.03;;;5.27;;
6376;SDS011;3221;48.858;10.128;2023-03-12T07:36:07;7.10;;;5.13;;
6376;SDS011;3221;48.858;10.128;2023-03-12T07:38:34;8.47;;;6.20;;
6376;SDS011;3221;48.858;10.128;2023-03-12T07:41:00;7.73;;;5.67;;
6376;SDS011;3221;48.858;10.128;2023-03-12T07:43:27;11.87;;;7.27;;
6376;SDS011;3221;48.858;10.128;2023-03-12T07:45:54;9.83;;;5.77;;
6376;SDS011;3221;48.858;10.128;2023-03-12T07:48:21;10.03;;;6.23;;
6376;SDS011;3221;48.858;10.128;2023-03-12T07:50:48;10.83;;;6.87;;
6376;SDS011;3221;48.858;10.128;2023-03-12T07:53:15;9.30;;;6.00;;
6376;SDS011;3221;48.858;10.128;2023-03-12T07:55:42;7.80;;;5.77;;
6376;SDS011;3221;48.858;10.128;2023-03-12T07:58:11;11.80;;;6.30;;
6376;SDS011;3221;48.858;10.128;2023-03-12T08:00:38;9.90;;;5.97;;
6376;SDS011;3221;48.858;10.128;2023-03-12T08:03:05;8.27;;;6.00;;
6376;SDS011;3221;48.858;10.128;2023-03-12T08:05:32;9.27;;;6.20;;
6376;SDS011;3221;48.858;10.128;2023-03-12T08:07:59;9.87;;;6.20;;
6376;SDS011;3221;48.858;10.128;2023-03-12T08:10:26;10.60;;;6.50;;
6376;SDS011;3221;48.858;10.128;2023-03-12T08:12:53;10.00;;;6.53;;
6376;SDS011;3221;48.858;10.128;2023-03-12T08:15:20;9.27;;;6.43;;
6376;SDS011;3221;48.858;10.128;2023-03-12T08:17:46;9.77;;;6.90;;
6376;SDS011;3221;48.858;10.128;2023-03-12T08:20:13;9.03;;;6.40;;
6376;SDS011;3221;48.858;10.128;2023-03-12T08:22:40;10.70;;;6.87;;
6376;SDS011;3221;48.858;10.128;2023-03-12T08:25:07;9.27;;;6.83;;
6376;SDS011;3221;48.858;10.128;2023-03-12T08:27:34;10.33;;;6.80;;
6376;SDS011;3221;48.858;10.128;2023-03-12T08:30:01;9.23;;;6.50;;
6376;SDS011;3221;48.858;10.128;2023-03-12T08:32:29;11.43;;;6.57;;
6376;SDS011;3221;48.858;10.128;2023-03-12T08:34:56;10.47;;;7.30;;
6376;SDS011;3221;48.858;10.128;2023-03-12T08:37:23;8.87;;;6.30;;
6376;SDS011;3221;48.858;10.128;2023-03-12T08:39:50;10.67;;;6.57;;
6376;SDS011;3221;48.858;10.128;2023-03-12T08:42:17;9.13;;;6.33;;
6376;SDS011;3221;48.858;10.128;2023-03-12T08:44:43;7.03;;;5.13;;
6376;SDS011;3221;48.858;10.128;2023-03-12T08:47:10;10.23;;;5.37;;
6376;SDS011;3221;48.858;10.128;2023-03-12T08:49:37;6.97;;;5.43;;
6376;SDS011;3221;48.858;10.128;2023-03-12T08:52:04;8.53;;;4.90;;
6376;SDS011;3221;48.858;10.128;2023-03-12T08:54:30;7.27;;;5.37;;
6376;SDS011;3221;48.858;10.128;2023-03-12T08:56:58;7.87;;;5.30;;
6376;SDS011;3221;48.858;10.128;2023-03-12T08:59:25;7.13;;;4.97;;
6376;SDS011;3221;48.858;10.128;2023-03-12T09:01:52;7.27;;;4.60;;
6376;SDS011;3221;48.858;10.128;2023-03-12T09:04:19;8.87;;;6.10;;
6376;SDS011;3221;48.858;10.128;2023-03-12T09:06:46;8.33;;;5.87;;
6376;SDS011;3221;48.858;10.128;2023-03-12T09:09:13;9.50;;;6.50;;
6376;SDS011;3221;48.858;10.128;2023-03-12T09:11:40;9.83;;;6.43;;
6376;SDS011;3221;48.858;10.128;2023-03-12T09:14:07;10.20;;;7.33;;
6376;SDS011;3221;48.858;10.128;2023-03-12T09:16:54;12.43;;;8.00;;
6376;SDS011;3221;48.858;10.128;2023-03-12T09:19:22;10.57;;;6.97;;
6376;SDS011;3221;48.858;10.128;2023-03-12T09:21:48;10.73;;;7.57;;
6376;SDS011;3221;48.858;10.128;2023-03-12T09:24:15;11.50;;;7.43;;
6376;SDS011;3221;48.858;10.128;2023-03-12T09:26:42;11.03;;;7.80;;
6376;SDS011;3221;48.858;10.128;2023-03-12T09:29:09;12.50;;;8.00;;
6376;SDS011;3221;48.858;10.128;2023-03-12T09:31:36;11.60;;;7.33;;
6376;SDS011;3221;48.858;10.128;2023-03-12T09:34:03;11.67;;;7.97;;
6376;SDS011;3221;48.858;10.128;2023-03-12T09:36:30;12.30;;;8.10;;
6376;SDS011;3221;48.858;10.128;2023-03-12T09:38:57;12.03;;;7.73;;
6376;SDS011;3221;48.858;10.128;2023-03-12T09:41:25;12.37;;;7.83;;
6376;SDS011;3221;48.858;10.128;2023-03-12T09:46:36;12.40;;;8.40;;
6376;SDS011;3221;48.858;10.128;2023-03-12T09:49:18;11.80;;;8.13;;
6376;SDS011;3221;48.858;10.128;2023-03-12T09:57:28;12.37;;;8.50;;
6376;SDS011;3221;48.858;10.128;2023-03-12T09:59:55;11.27;;;7.50;;
6376;SDS011;3221;48.858;10.128;2023-03-12T10:08:12;11.73;;;7.70;;
6376;SDS011;3221;48.858;10.128;2023-03-12T10:14:15;12.67;;;7.93;;
6376;SDS011;3221;48.858;10.128;2023-03-12T10:17:16;12.30;;;8.13;;
6376;SDS011;3221;48.858;10.128;2023-03-12T10:24:59;13.20;;;8.03;;
6376;SDS011;3221;48.858;10.128;2023-03-12T10:27:49;14.43;;;8.97;;
6376;SDS011;3221;48.858;10.128;2023-03-12T10:30:21;11.67;;;8.30;;
6376;SDS011;3221;48.858;10.128;2023-03-12T10:32:52;12.90;;;8.20;;
6376;SDS011;3221;48.858;10.128;2023-03-12T10:35:23;13.10;;;7.83;;
6376;SDS011;3221;48.858;10.128;2023-03-12T10:38:00;11.97;;;7.93;;
6376;SDS011;3221;48.858;10.128;2023-03-12T10:40:29;11.30;;;7.97;;
6376;SDS011;3221;48.858;10.128;2023-03-12T10:43:02;12.53;;;8.13;;
6376;SDS011;3221;48.858;10.128;2023-03-12T10:48:02;11.27;;;7.83;;
6376;SDS011;3221;48.858;10.128;2023-03-12T10:50:35;8.70;;;6.80;;
6376;SDS011;3221;48.858;10.128;2023-03-12T10:53:49;10.53;;;7.20;;
6376;SDS011;3221;48.858;10.128;2023-03-12T10:56:09;10.73;;;7.83;;
6376;SDS011;3221;48.858;10.128;2023-03-12T10:58:39;10.23;;;7.23;;
6376;SDS011;3221;48.858;10.128;2023-03-12T11:03:41;9.07;;;7.10;;
6376;SDS011;3221;48.858;10.128;2023-03-12T11:06:08;8.47;;;6.30;;
6376;SDS011;3221;48.858;10.128;2023-03-12T11:09:03;8.10;;;6.37;;
6376;SDS011;3221;48.858;10.128;2023-03-12T11:11:43;8.27;;;6.17;;
6376;SDS011;3221;48.858;10.128;2023-03-12T11:16:52;7.00;;;5.73;;
6376;SDS011;3221;48.858;10.128;2023-03-12T11:19:29;8.10;;;6.50;;
6376;SDS011;3221;48.858;10.128;2023-03-12T11:22:02;9.27;;;7.03;;
6376;SDS011;3221;48.858;10.128;2023-03-12T11:24:30;8.07;;;6.30;;
6376;SDS011;3221;48.858;10.128;2023-03-12T11:29:31;7.43;;;6.00;;
6376;SDS011;3221;48.858;10.128;2023-03-12T11:32:14;7.97;;;5.93;;
6376;SDS011;3221;48.858;10.128;2023-03-12T11:35:00;9.17;;;6.40;;
6376;SDS011;3221;48.858;10.128;2023-03-12T11:46:37;20.77;;;11.10;;
6376;SDS011;3221;48.858;10.128;2023-03-12T11:57:41;17.60;;;11.53;;
6376;SDS011;3221;48.858;10.128;2023-03-12T12:00:21;13.30;;;9.40;;
6376;SDS011;3221;48.858;10.128;2023-03-12T12:17:43;9.33;;;7.53;;
6376;SDS011;3221;48.858;10.128;2023-03-12T12:20:25;7.43;;;5.90;;
6376;SDS011;3221;48.858;10.128;2023-03-12T12:25:27;10.47;;;8.70;;
6376;SDS011;3221;48.858;10.128;2023-03-12T12:34:00;6.77;;;5.37;;
6376;SDS011;3221;48.858;10.128;2023-03-12T12:36:34;5.90;;;5.20;;
6376;SDS011;3221;48.858;10.128;2023-03-12T12:39:08;6.67;;;4.87;;
6376;SDS011;3221;48.858;10.128;2023-03-12T12:41:42;6.50;;;5.60;;
6376;SDS011;3221;48.858;10.128;2023-03-12T12:44:14;7.37;;;5.57;;
6376;SDS011;3221;48.858;10.128;2023-03-12T12:46:52;6.07;;;5.20;;
6376;SDS011;3221;48.858;10.128;2023-03-12T12:49:43;7.90;;;6.20;;
6376;SDS011;3221;48.858;10.128;2023-03-12T12:52:16;9.63;;;6.53;;
6376;SDS011;3221;48.858;10.128;2023-03-12T12:57:27;7.73;;;6.17;;
6376;SDS011;3221;48.858;10.128;2023-03-12T13:03:12;6.83;;;4.70;;
6376;SDS011;3221;48.858;10.128;2023-03-12T13:05:44;7.03;;;5.17;;
6376;SDS011;3221;48.858;10.128;2023-03-12T13:13:50;8.40;;;5.63;;
6376;SDS011;3221;48.858;10.128;2023-03-12T13:16:38;6.57;;;4.63;;
6376;SDS011;3221;48.858;10.128;2023-03-12T13:24:45;10.53;;;5.30;;
6376;SDS011;3221;48.858;10.128;2023-03-12T13:27:28;6.20;;;3.90;;
6376;SDS011;3221;48.858;10.128;2023-03-12T13:35:30;7.43;;;3.83;;
6376;SDS011;3221;48.858;10.128;2023-03-12T13:38:09;4.43;;;2.93;;
6376;SDS011;3221;48.858;10.128;2023-03-12T13:40:39;5.07;;;3.10;;
6376;SDS011;3221;48.858;10.128;2023-03-12T13:43:40;3.53;;;2.70;;
6376;SDS011;3221;48.858;10.128;2023-03-12T13:46:20;3.33;;;2.90;;
6376;SDS011;3221;48.858;10.128;2023-03-12T13:48:55;4.97;;;3.30;;
6376;SDS011;3221;48.858;10.128;2023-03-12T13:51:24;4.67;;;2.90;;
6376;SDS011;3221;48.858;10.128;2023-03-12T13:53:52;4.53;;;2.60;;
6376;SDS011;3221;48.858;10.128;2023-03-12T13:56:27;4.10;;;2.53;;
6376;SDS011;3221;48.858;10.128;2023-03-12T14:01:34;2.73;;;2.30;;
6376;SDS011;3221;48.858;10.128;2023-03-12T14:04:09;4.20;;;2.50;;
6376;SDS011;3221;48.858;10.128;2023-03-12T14:10:15;7.80;;;2.83;;
6376;SDS011;3221;48.858;10.128;2023-03-12T14:16:01;4.40;;;2.50;;
6376;SDS011;3221;48.858;10.128;2023-03-12T14:18:43;3.47;;;2.23;;
6376;SDS011;3221;48.858;10.128;2023-03-12T14:21:13;3.63;;;2.23;;
6376;SDS011;3221;48.858;10.128;2023-03-12T14:23:47;3.73;;;2.30;;
6376;SDS011;3221;48.858;10.128;2023-03-12T14:26:27;6.20;;;2.57;;
6376;SDS011;3221;48.858;10.128;2023-03-12T14:28:59;9.17;;;4.77;;
6376;SDS011;3221;48.858;10.128;2023-03-12T14:31:33;11.47;;;6.30;;
6376;SDS011;3221;48.858;10.128;2023-03-12T14:34:03;19.03;;;7.77;;
6376;SDS011;3221;48.858;10.128;2023-03-12T14:36:46;29.60;;;9.97;;
6376;SDS011;3221;48.858;10.128;2023-03-12T14:39:31;42.30;;;16.70;;
6376;SDS011;3221;48.858;10.128;2023-03-12T14:42:05;26.87;;;10.03;;
6376;SDS011;3221;48.858;10.128;2023-03-12T14:44:34;25.80;;;12.20;;
6376;SDS011;3221;48.858;10.128;2023-03-12T14:47:03;20.97;;;9.17;;
6376;SDS011;3221;48.858;10.128;2023-03-12T14:49:43;15.53;;;7.20;;
6376;SDS011;3221;48.858;10.128;2023-03-12T14:52:13;8.57;;;4.27;;
6376;SDS011;3221;48.858;10.128;2023-03-12T14:55:00;9.00;;;5.03;;
6376;SDS011;3221;48.858;10.128;2023-03-12T14:57:29;8.50;;;4.10;;
6376;SDS011;3221;48.858;10.128;2023-03-12T14:59:57;6.33;;;2.90;;
6376;SDS011;3221;48.858;10.128;2023-03-12T15:02:26;6.80;;;3.20;;
6376;SDS011;3221;48.858;10.128;2023-03-12T15:04:56;15.40;;;6.07;;
6376;SDS011;3221;48.858;10.128;2023-03-12T15:07:34;5.27;;;3.13;;
6376;SDS011;3221;48.858;10.128;2023-03-12T15:10:27;69.30;;;27.43;;
6376;SDS011;3221;48.858;10.128;2023-03-12T15:12:53;35.83;;;15.30;;
6376;SDS011;3221;48.858;10.128;2023-03-12T15:18:13;12.70;;;5.83;;
6376;SDS011;3221;48.858;10.128;2023-03-12T15:20:43;19.87;;;8.10;;
6376;SDS011;3221;48.858;10.128;2023-03-12T15:23:11;10.30;;;5.20;;
6376;SDS011;3221;48.858;10.128;2023-03-12T15:25:39;9.30;;;4.73;;
6376;SDS011;3221;48.858;10.128;2023-03-12T15:30:36;7.47;;;4.33;;
6376;SDS011;3221;48.858;10.128;2023-03-12T15:33:11;8.97;;;4.70;;
6376;SDS011;3221;48.858;10.128;2023-03-12T15:35:55;8.73;;;4.10;;
6376;SDS011;3221;48.858;10.128;2023-03-12T15:38:28;6.53;;;4.87;;
6376;SDS011;3221;48.858;10.128;2023-03-12T15:41:05;5.70;;;3.83;;
6376;SDS011;3221;48.858;10.128;2023-03-12T15:43:34;5.77;;;3.37;;
6376;SDS011;3221;48.858;10.128;2023-03-12T15:46:03;5.43;;;3.37;;
6376;SDS011;3221;48.858;10.128;2023-03-12T15:48:35;4.10;;;3.17;;
6376;SDS011;3221;48.858;10.128;2023-03-12T15:51:26;5.27;;;3.43;;
6376;SDS011;3221;48.858;10.128;2023-03-12T15:54:05;6.03;;;3.27;;
6376;SDS011;3221;48.858;10.128;2023-03-12T15:56:49;3.97;;;2.27;;
6376;SDS011;3221;48.858;10.128;2023-03-12T15:59:26;4.87;;;2.40;;
6376;SDS011;3221;48.858;10.128;2023-03-12T16:01:54;5.20;;;2.80;;
6376;SDS011;3221;48.858;10.128;2023-03-12T16:04:22;6.03;;;3.03;;
6376;SDS011;3221;48.858;10.128;2023-03-12T16:06:49;4.93;;;2.30;;
6376;SDS011;3221;48.858;10.128;2023-03-12T16:09:20;6.43;;;2.83;;
6376;SDS011;3221;48.858;10.128;2023-03-12T16:11:49;4.83;;;3.13;;
6376;SDS011;3221;48.858;10.128;2023-03-12T16:14:19;6.17;;;2.90;;
6376;SDS011;3221;48.858;10.128;2023-03-12T16:16:52;5.90;;;3.10;;
6376;SDS011;3221;48.858;10.128;2023-03-12T16:19:20;5.13;;;2.90;;
6376;SDS011;3221;48.858;10.128;2023-03-12T16:21:48;5.60;;;3.10;;
6376;SDS011;3221;48.858;10.128;2023-03-12T16:24:15;5.33;;;3.50;;
6376;SDS011;3221;48.858;10.128;2023-03-12T16:26:49;8.47;;;3.70;;
6376;SDS011;3221;48.858;10.128;2023-03-12T16:29:20;7.47;;;4.00;;
6376;SDS011;3221;48.858;10.128;2023-03-12T16:31:48;8.80;;;3.70;;
6376;SDS011;3221;48.858;10.128;2023-03-12T16:34:19;6.63;;;3.67;;
6376;SDS011;3221;48.858;10.128;2023-03-12T16:36:46;7.43;;;3.87;;
6376;SDS011;3221;48.858;10.128;2023-03-12T16:39:13;7.70;;;3.67;;
6376;SDS011;3221;48.858;10.128;2023-03-12T16:41:42;8.77;;;3.47;;
6376;SDS011;3221;48.858;10.128;2023-03-12T16:44:11;8.93;;;4.23;;
6376;SDS011;3221;48.858;10.128;2023-03-12T16:46:42;7.73;;;5.33;;
6376;SDS011;3221;48.858;10.128;2023-03-12T16:49:14;9.97;;;4.60;;
6376;SDS011;3221;48.858;10.128;2023-03-12T16:51:42;8.03;;;4.40;;
6376;SDS011;3221;48.858;10.128;2023-03-12T16:54:09;7.23;;;4.37;;
6376;SDS011;3221;48.858;10.128;2023-03-12T16:56:37;9.80;;;4.10;;
6376;SDS011;3221;48.858;10.128;2023-03-12T16:59:11;9.70;;;4.67;;
6376;SDS011;3221;48.858;10.128;2023-03-12T17:01:49;9.33;;;4.27;;
6376;SDS011;3221;48.858;10.128;2023-03-12T17:04:16;5.40;;;3.83;;
6376;SDS011;3221;48.858;10.128;2023-03-12T17:06:43;6.67;;;3.80;;
6376;SDS011;3221;48.858;10.128;2023-03-12T17:09:10;7.37;;;3.43;;
6376;SDS011;3221;48.858;10.128;2023-03-12T17:11:37;7.40;;;4.10;;
6376;SDS011;3221;48.858;10.128;2023-03-12T17:14:10;10.17;;;4.93;;